Time;durP1;ratioP1;P1;durP2;ratioP2;P2;SDS_P1;SDS_P2;PMS_P1;PMS_P2;Temp;Humidity;BMP_temperature;BMP_pressure;BME280_temperature;BME280_humidity;BME280_pressure;Samples;Min_cycle;Max_cycle;Signal;HPM_P1;HPM_P2
2022/01/18 00:00:01;;;;;;;13.95;2.78;;;8.40;99.90;;;;;;4159308;28;20048;-65
2022/01/18 00:02:02;;;;;;;13.32;3.25;;;8.40;99.90;;;;;;4162296;28;20041;-65
2022/01/18 00:04:03;;;;;;;14.75;3.58;;;8.40;99.90;;;;;;4164689;28;20041;-64
2022/01/18 00:06:04;;;;;;;16.95;3.47;;;8.30;99.90;;;;;;4160667;28;20512;-64
2022/01/18 00:08:05;;;;;;;15.43;2.65;;;8.30;99.90;;;;;;4163549;28;20079;-64
2022/01/18 00:10:06;;;;;;;12.38;2.80;;;8.30;99.90;;;;;;4163348;28;20450;-67
2022/01/18 00:12:31;;;;;;;11.23;2.97;;;8.30;99.90;;;;;;4163300;28;20033;-64
2022/01/18 00:14:44;;;;;;;10.93;2.35;;;8.30;99.90;;;;;;4158264;28;20034;-64
2022/01/18 00:17:03;;;;;;;15.18;2.75;;;8.30;99.90;;;;;;4161958;28;20414;-64
2022/01/18 00:19:10;;;;;;;10.70;2.22;;;8.30;99.90;;;;;;4157015;28;20053;-64
2022/01/18 00:21:20;;;;;;;12.57;2.60;;;8.40;99.90;;;;;;4158139;28;20046;-64
2022/01/18 00:23:22;;;;;;;17.30;3.25;;;8.30;99.90;;;;;;4161074;28;20050;-64
2022/01/18 00:25:22;;;;;;;15.37;2.83;;;8.30;99.90;;;;;;4161128;28;20106;-64
2022/01/18 00:27:23;;;;;;;14.68;3.03;;;8.30;99.90;;;;;;4162954;28;20359;-64
2022/01/18 00:29:26;;;;;;;15.00;2.97;;;8.30;99.90;;;;;;4154056;28;20038;-64
2022/01/18 00:34:00;;;;;;;12.20;2.60;;;8.30;99.90;;;;;;4162267;28;20056;-64
2022/01/18 00:36:03;;;;;;;12.07;2.95;;;8.40;99.90;;;;;;4144389;28;20045;-64
2022/01/18 00:38:15;;;;;;;10.77;2.05;;;8.40;99.90;;;;;;4148848;28;20054;-64
2022/01/18 00:40:15;;;;;;;18.00;4.00;;;8.40;99.90;;;;;;4147596;28;20064;-64
2022/01/18 00:42:16;;;;;;;11.50;2.78;;;8.40;99.90;;;;;;4152277;28;20041;-64
2022/01/18 00:44:17;;;;;;;17.10;3.30;;;8.40;99.90;;;;;;4161696;28;20140;-64
2022/01/18 00:46:18;;;;;;;11.80;2.95;;;8.40;99.90;;;;;;4161423;28;20538;-64
2022/01/18 00:48:19;;;;;;;11.57;2.85;;;8.40;99.90;;;;;;4153185;28;20092;-64
2022/01/18 00:50:19;;;;;;;15.32;2.80;;;8.40;99.90;;;;;;4155034;28;20457;-64
2022/01/18 00:52:20;;;;;;;16.90;3.80;;;8.40;99.90;;;;;;4162702;28;20037;-64
2022/01/18 00:54:24;;;;;;;16.33;2.72;;;8.40;99.90;;;;;;4162212;28;20041;-64
2022/01/18 00:56:28;;;;;;;12.88;2.70;;;8.40;99.90;;;;;;4158654;28;20038;-64
2022/01/18 00:58:29;;;;;;;14.95;2.80;;;8.40;99.90;;;;;;4158316;28;20034;-65
2022/01/18 01:00:29;;;;;;;15.43;3.30;;;8.40;99.90;;;;;;4162147;28;20512;-64
2022/01/18 01:02:30;;;;;;;13.85;3.15;;;8.40;99.90;;;;;;4161688;28;20038;-64
2022/01/18 01:04:35;;;;;;;21.17;3.63;;;8.40;99.90;;;;;;4162885;28;20106;-64
2022/01/18 01:06:36;;;;;;;14.38;3.28;;;8.40;99.90;;;;;;4160231;28;20037;-64
2022/01/18 01:08:37;;;;;;;13.90;3.33;;;8.30;99.90;;;;;;4162114;28;20042;-64
2022/01/18 01:10:38;;;;;;;12.20;3.13;;;8.40;99.90;;;;;;4161663;28;20065;-64
2022/01/18 01:12:38;;;;;;;14.48;2.88;;;8.40;99.90;;;;;;4162956;28;20461;-64
2022/01/18 01:14:41;;;;;;;19.67;4.53;;;8.40;99.90;;;;;;4160606;28;20042;-64
2022/01/18 01:16:51;;;;;;;11.15;3.28;;;8.40;99.90;;;;;;4160959;28;20048;-64
2022/01/18 01:42:14;;;;;;;21.17;3.58;;;8.40;99.90;;;;;;4158851;28;20037;-64
2022/01/18 01:44:25;;;;;;;14.57;3.20;;;8.40;99.90;;;;;;4161481;28;20550;-64
2022/01/18 01:46:29;;;;;;;11.10;3.03;;;8.40;99.90;;;;;;4159099;28;20029;-64
2022/01/18 01:48:30;;;;;;;14.05;3.38;;;8.50;99.90;;;;;;4160703;28;20033;-65
2022/01/18 01:52:55;;;;;;;11.98;2.80;;;8.50;99.90;;;;;;4162171;28;20075;-64
2022/01/18 01:54:56;;;;;;;10.63;2.70;;;8.50;99.90;;;;;;4159990;28;20056;-64
2022/01/18 01:56:56;;;;;;;12.70;3.10;;;8.50;99.90;;;;;;4161854;28;20069;-64
2022/01/18 01:58:57;;;;;;;10.50;2.55;;;8.50;99.90;;;;;;4160974;28;20104;-64
2022/01/18 02:01:06;;;;;;;16.13;3.60;;;8.60;99.90;;;;;;4160860;28;20041;-67
2022/01/18 02:03:07;;;;;;;13.60;2.92;;;8.60;99.90;;;;;;4158966;28;20525;-64
2022/01/18 02:05:09;;;;;;;11.07;3.00;;;8.60;99.90;;;;;;4149738;28;20133;-65
2022/01/18 02:07:09;;;;;;;12.80;3.17;;;8.60;99.90;;;;;;4161162;28;20053;-64
2022/01/18 02:09:10;;;;;;;13.73;2.97;;;8.60;99.90;;;;;;4158836;28;20053;-64
2022/01/18 02:11:11;;;;;;;13.70;2.83;;;8.60;99.90;;;;;;4160349;28;20029;-64
2022/01/18 02:13:12;;;;;;;12.40;3.00;;;8.70;99.90;;;;;;4161493;28;20491;-64
2022/01/18 02:15:17;;;;;;;11.52;2.85;;;8.60;99.90;;;;;;4160608;28;20112;-64
2022/01/18 02:21:57;;;;;;;11.93;2.70;;;8.70;99.90;;;;;;4156759;28;20072;-64
2022/01/18 02:23:57;;;;;;;8.82;2.85;;;8.70;99.90;;;;;;4158985;28;20045;-64
2022/01/18 02:25:58;;;;;;;9.00;2.53;;;8.70;99.90;;;;;;4160947;28;20064;-68
2022/01/18 02:27:59;;;;;;;12.40;3.08;;;8.70;99.90;;;;;;4161682;28;20049;-65
2022/01/18 02:30:00;;;;;;;14.73;3.20;;;8.70;99.90;;;;;;4152911;28;20117;-64
2022/01/18 02:32:01;;;;;;;13.65;3.22;;;8.70;99.90;;;;;;4149726;28;20481;-64
2022/01/18 02:34:07;;;;;;;11.23;2.97;;;8.70;99.90;;;;;;4152589;28;20029;-65
2022/01/18 02:36:09;;;;;;;10.90;2.83;;;8.70;99.90;;;;;;4160830;28;20061;-64
2022/01/18 02:38:10;;;;;;;9.27;2.55;;;8.70;99.90;;;;;;4153122;28;20045;-64
2022/01/18 02:40:11;;;;;;;18.60;3.10;;;8.70;99.90;;;;;;4161730;28;20071;-66
2022/01/18 02:42:14;;;;;;;11.75;2.95;;;8.70;99.90;;;;;;4161195;28;20034;-65
2022/01/18 02:44:15;;;;;;;10.30;2.63;;;8.70;99.90;;;;;;4159861;28;20045;-65
2022/01/18 02:46:17;;;;;;;13.68;3.33;;;8.70;99.90;;;;;;4152876;28;20121;-66
2022/01/18 02:48:18;;;;;;;10.68;2.67;;;8.70;99.90;;;;;;4157037;28;20029;-65
2022/01/18 02:50:20;;;;;;;12.00;2.72;;;8.70;99.90;;;;;;4161205;28;20041;-66
2022/01/18 02:52:21;;;;;;;16.38;3.13;;;8.70;99.90;;;;;;4156262;28;20400;-64
2022/01/18 02:54:21;;;;;;;15.02;2.80;;;8.70;99.90;;;;;;4149653;28;20116;-64
2022/01/18 02:56:23;;;;;;;13.30;2.88;;;8.70;99.90;;;;;;4153555;28;20409;-64
2022/01/18 02:58:31;;;;;;;13.43;3.10;;;8.70;99.90;;;;;;4160168;28;20080;-64
2022/01/18 03:00:44;;;;;;;13.82;2.72;;;8.70;99.90;;;;;;4146897;28;20065;-64
2022/01/18 03:05:05;;;;;;;13.73;3.05;;;8.70;99.90;;;;;;4156855;28;19909;-66
2022/01/18 03:07:05;;;;;;;11.68;3.20;;;8.70;99.90;;;;;;4159235;28;20053;-66
2022/01/18 03:09:06;;;;;;;10.88;3.10;;;8.70;99.90;;;;;;4159542;28;20404;-66
2022/01/18 03:11:07;;;;;;;12.98;3.10;;;8.70;99.90;;;;;;4151718;28;20112;-65
2022/01/18 03:13:08;;;;;;;14.65;3.42;;;8.60;99.90;;;;;;4152208;28;20092;-65
2022/01/18 03:15:09;;;;;;;14.85;3.47;;;8.60;99.90;;;;;;4163119;28;20037;-66
2022/01/18 03:17:09;;;;;;;14.18;3.30;;;8.60;99.90;;;;;;4163507;28;20499;-64
2022/01/18 03:19:10;;;;;;;19.67;4.38;;;8.60;99.90;;;;;;4163829;28;20033;-64
2022/01/18 03:21:11;;;;;;;20.50;4.35;;;8.60;99.90;;;;;;4163622;28;20424;-64
2022/01/18 03:23:19;;;;;;;14.68;3.72;;;8.50;99.90;;;;;;4163429;28;20064;-64
2022/01/18 03:29:48;;;;;;;11.73;3.10;;;8.50;99.90;;;;;;4157752;28;20954;-64
2022/01/18 03:31:49;;;;;;;16.08;3.53;;;8.40;99.90;;;;;;4157038;28;20036;-64
2022/01/18 03:33:50;;;;;;;11.52;2.88;;;8.40;99.90;;;;;;4163098;28;20458;-64
2022/01/18 03:35:57;;;;;;;14.82;3.42;;;8.50;99.90;;;;;;4149151;28;20388;-64
2022/01/18 03:37:58;;;;;;;8.52;2.60;;;8.50;99.90;;;;;;4165033;28;20041;-64
2022/01/18 03:39:59;;;;;;;10.65;3.10;;;8.40;99.90;;;;;;4159004;28;20053;-64
2022/01/18 03:42:32;;;;;;;12.43;3.10;;;8.50;99.90;;;;;;4150884;28;20469;-66
2022/01/18 03:44:25;;;;;;;15.32;3.22;;;8.50;99.90;;;;;;4158594;28;20053;-64
2022/01/18 03:46:26;;;;;;;12.50;3.75;;;8.40;99.90;;;;;;4154434;28;20038;-64
2022/01/18 03:48:33;;;;;;;14.50;3.30;;;8.40;99.90;;;;;;4159150;28;20034;-64
2022/01/18 03:50:34;;;;;;;15.45;2.72;;;8.40;99.90;;;;;;4147595;28;20040;-64
2022/01/18 03:52:35;;;;;;;12.55;2.97;;;8.50;99.90;;;;;;4146382;28;20401;-65
2022/01/18 03:54:42;;;;;;;12.82;3.83;;;8.40;99.90;;;;;;4147559;28;20041;-64
2022/01/18 03:56:43;;;;;;;12.52;3.22;;;8.40;99.90;;;;;;4150237;28;20042;-64
2022/01/18 03:58:43;;;;;;;9.48;2.88;;;8.40;99.90;;;;;;4163410;28;20111;-64
2022/01/18 04:00:44;;;;;;;11.95;3.35;;;8.40;99.90;;;;;;4161588;28;20140;-64
2022/01/18 04:02:45;;;;;;;13.73;3.40;;;8.40;99.90;;;;;;4157743;28;20037;-64
2022/01/18 04:04:46;;;;;;;11.43;3.15;;;8.40;99.90;;;;;;4163159;28;20121;-64
2022/01/18 04:06:47;;;;;;;7.82;2.55;;;8.40;99.90;;;;;;4162008;28;20056;-64
2022/01/18 04:08:47;;;;;;;8.80;2.95;;;8.40;99.90;;;;;;4163038;28;20374;-64
2022/01/18 04:10:48;;;;;;;11.05;2.97;;;8.40;99.90;;;;;;4163206;28;20448;-64
2022/01/18 04:12:49;;;;;;;11.85;3.22;;;8.40;99.90;;;;;;4163834;28;20038;-64
2022/01/18 04:14:49;;;;;;;11.23;3.08;;;8.40;99.90;;;;;;4162066;28;20046;-64
2022/01/18 04:17:04;;;;;;;15.65;3.97;;;8.40;99.90;;;;;;4164008;28;20037;-64
2022/01/18 04:25:43;;;;;;;10.75;3.22;;;8.40;99.90;;;;;;4155872;28;20561;-65
2022/01/18 04:30:31;;;;;;;16.40;4.30;;;8.40;99.90;;;;;;4154783;28;20067;-63
2022/01/18 04:32:32;;;;;;;13.00;3.85;;;8.40;99.90;;;;;;4147412;28;20116;-64
2022/01/18 04:34:32;;;;;;;18.17;3.85;;;8.30;99.90;;;;;;4162622;28;20476;-64
2022/01/18 04:36:33;;;;;;;13.95;3.55;;;8.40;99.90;;;;;;4160243;28;20493;-64
2022/01/18 04:38:35;;;;;;;14.38;4.60;;;8.30;99.90;;;;;;4164107;28;20061;-64
2022/01/18 04:40:39;;;;;;;16.13;4.22;;;8.30;99.90;;;;;;4160704;28;20037;-65
2022/01/18 04:49:31;;;;;;;19.38;5.22;;;8.20;99.90;;;;;;4161908;28;20117;-64
2022/01/18 04:51:32;;;;;;;21.55;4.75;;;8.20;99.90;;;;;;4154374;28;20045;-65
2022/01/18 04:53:40;;;;;;;11.80;3.95;;;8.20;99.90;;;;;;4161733;28;20036;-64
2022/01/18 04:55:41;;;;;;;17.83;4.35;;;8.20;99.90;;;;;;4161446;28;20120;-64
2022/01/18 04:57:54;;;;;;;14.25;4.35;;;8.10;99.90;;;;;;4163163;28;20397;-64
2022/01/18 04:59:54;;;;;;;18.70;5.20;;;8.10;99.90;;;;;;4162452;28;20033;-64
2022/01/18 05:01:55;;;;;;;26.17;6.22;;;8.10;99.90;;;;;;4160953;28;20049;-65
2022/01/18 05:03:56;;;;;;;20.95;5.85;;;8.10;99.90;;;;;;4161304;28;20045;-64
2022/01/18 05:06:07;;;;;;;19.20;5.18;;;8.00;99.90;;;;;;4162387;28;20037;-64
2022/01/18 05:08:13;;;;;;;16.25;4.65;;;8.10;99.90;;;;;;4143837;28;20054;-64
2022/01/18 05:10:16;;;;;;;18.98;5.93;;;8.00;99.90;;;;;;4155926;28;20040;-64
2022/01/18 05:12:26;;;;;;;19.75;5.50;;;8.00;99.90;;;;;;4159660;28;20124;-64
2022/01/18 05:14:30;;;;;;;18.25;5.28;;;8.00;99.90;;;;;;4162465;28;20037;-64
2022/01/18 05:21:21;;;;;;;21.05;5.85;;;8.10;99.90;;;;;;4142746;28;20374;-65
2022/01/18 05:23:22;;;;;;;19.70;5.68;;;8.00;99.90;;;;;;4143529;28;20053;-64
2022/01/18 05:25:22;;;;;;;15.43;5.53;;;8.00;99.90;;;;;;4146520;28;20037;-64
2022/01/18 05:27:23;;;;;;;20.83;5.40;;;8.00;99.90;;;;;;4145908;28;20045;-64
2022/01/18 05:29:24;;;;;;;20.50;5.40;;;8.00;99.90;;;;;;4140219;28;20040;-64
2022/01/18 05:31:26;;;;;;;14.80;4.68;;;8.00;99.90;;;;;;4143126;28;20056;-64
2022/01/18 05:33:26;;;;;;;12.10;4.78;;;8.00;99.90;;;;;;4145402;28;20100;-64
2022/01/18 05:35:27;;;;;;;13.80;4.55;;;8.00;99.90;;;;;;4143463;28;20038;-64
2022/01/18 05:37:28;;;;;;;14.10;5.05;;;8.00;99.90;;;;;;4143854;28;20065;-64
2022/01/18 05:39:28;;;;;;;22.23;5.60;;;8.00;99.90;;;;;;4144480;28;20452;-64
2022/01/18 05:41:29;;;;;;;25.05;5.38;;;8.00;99.90;;;;;;4141535;28;20037;-64
2022/01/18 05:43:30;;;;;;;15.68;4.47;;;8.00;99.90;;;;;;4143963;28;20100;-64
2022/01/18 05:45:31;;;;;;;18.67;5.55;;;8.00;99.90;;;;;;4142302;28;20493;-65
2022/01/18 05:47:32;;;;;;;16.73;5.47;;;8.00;99.90;;;;;;4142803;28;20057;-68
2022/01/18 05:49:33;;;;;;;21.15;5.55;;;8.00;99.90;;;;;;4142921;28;20038;-65
2022/01/18 05:51:37;;;;;;;17.77;5.40;;;8.00;99.90;;;;;;4141480;28;20042;-64
2022/01/18 05:53:39;;;;;;;21.23;5.63;;;7.90;99.90;;;;;;4142124;28;20511;-65
2022/01/18 05:55:39;;;;;;;11.70;4.55;;;8.00;99.90;;;;;;4141571;28;20038;-65
2022/01/18 05:57:40;;;;;;;15.57;4.93;;;7.90;99.90;;;;;;4142586;28;20211;-64
2022/01/18 05:59:45;;;;;;;15.85;4.03;;;8.00;99.90;;;;;;4143903;28;20050;-64
2022/01/18 06:01:48;;;;;;;17.02;5.20;;;8.00;99.90;;;;;;4141543;28;20037;-64
2022/01/18 06:04:04;;;;;;;11.68;4.43;;;8.00;99.90;;;;;;4143028;28;20044;-64
2022/01/18 06:08:23;;;;;;;20.23;5.45;;;8.10;99.90;;;;;;4140492;28;20374;-64
2022/01/18 06:10:25;;;;;;;21.17;5.60;;;8.10;99.90;;;;;;4140564;28;20049;-64
2022/01/18 06:12:28;;;;;;;13.55;4.30;;;8.00;99.90;;;;;;4141978;28;20118;-64
2022/01/18 06:14:28;;;;;;;8.63;3.70;;;8.10;99.90;;;;;;4142708;28;20946;-64
2022/01/18 06:16:29;;;;;;;14.00;4.03;;;8.10;99.90;;;;;;4143101;28;20768;-64
2022/01/18 06:18:30;;;;;;;14.38;4.57;;;8.10;99.90;;;;;;4142773;28;20038;-64
2022/01/18 06:20:31;;;;;;;18.67;5.43;;;8.10;99.90;;;;;;4140344;28;20042;-64
2022/01/18 06:22:31;;;;;;;15.40;5.25;;;8.10;99.90;;;;;;4140409;28;20041;-64
2022/01/18 06:24:32;;;;;;;16.23;5.63;;;8.10;99.90;;;;;;4142767;28;20041;-64
2022/01/18 06:26:32;;;;;;;17.40;5.95;;;8.10;99.90;;;;;;4141604;28;20477;-66
2022/01/18 06:28:34;;;;;;;14.68;4.97;;;8.10;99.90;;;;;;4142781;28;20045;-66
2022/01/18 06:30:35;;;;;;;16.42;5.35;;;8.10;99.90;;;;;;4141269;28;20040;-64
2022/01/18 06:32:40;;;;;;;20.23;6.20;;;8.10;99.90;;;;;;4142344;28;20034;-65
2022/01/18 06:34:41;;;;;;;16.75;5.47;;;8.10;99.90;;;;;;4143736;28;20100;-64
2022/01/18 06:36:42;;;;;;;12.63;5.18;;;8.10;99.90;;;;;;4142293;28;20045;-64
2022/01/18 06:38:42;;;;;;;17.58;5.85;;;8.10;99.90;;;;;;4143048;28;20073;-64
2022/01/18 06:40:44;;;;;;;13.95;6.07;;;8.10;99.90;;;;;;4141487;28;20049;-64
2022/01/18 06:42:45;;;;;;;16.83;5.60;;;8.10;99.90;;;;;;4142754;28;20060;-65
2022/01/18 06:44:46;;;;;;;18.15;5.43;;;8.10;99.90;;;;;;4142941;28;20683;-64
2022/01/18 06:52:40;;;;;;;17.98;5.22;;;8.10;99.90;;;;;;4140588;28;21290;-64
2022/01/18 06:54:41;;;;;;;18.40;5.75;;;8.10;99.90;;;;;;4141838;28;20030;-64
2022/01/18 06:56:45;;;;;;;13.60;5.05;;;8.10;99.90;;;;;;4140778;28;20049;-64
2022/01/18 06:58:46;;;;;;;16.85;6.10;;;8.10;99.90;;;;;;4142933;28;20041;-64
2022/01/18 07:00:47;;;;;;;15.90;5.63;;;8.10;99.90;;;;;;4138504;28;20042;-64
2022/01/18 07:02:47;;;;;;;22.27;6.32;;;8.10;99.90;;;;;;4141245;28;20053;-64
2022/01/18 07:04:48;;;;;;;16.73;5.78;;;8.10;99.90;;;;;;4143206;28;20069;-64
2022/01/18 07:06:48;;;;;;;15.20;5.43;;;8.10;99.90;;;;;;4141526;28;20120;-64
2022/01/18 07:08:49;;;;;;;19.10;5.93;;;8.10;99.90;;;;;;4142630;28;20045;-64
2022/01/18 07:10:50;;;;;;;21.25;6.63;;;8.10;99.90;;;;;;4141531;28;20045;-65
2022/01/18 07:12:55;;;;;;;20.08;6.60;;;8.10;99.90;;;;;;4141799;28;20046;-65
2022/01/18 07:14:56;;;;;;;15.57;6.18;;;8.10;99.90;;;;;;4142900;28;20409;-64
2022/01/18 07:16:56;;;;;;;18.10;6.13;;;8.10;99.90;;;;;;4141921;28;20041;-64
2022/01/18 07:18:57;;;;;;;14.30;5.88;;;8.10;99.90;;;;;;4143228;28;20108;-64
2022/01/18 07:20:57;;;;;;;14.23;6.07;;;8.10;99.90;;;;;;4140723;28;20034;-64
2022/01/18 07:22:58;;;;;;;16.65;5.70;;;8.10;99.90;;;;;;4142439;28;20038;-64
2022/01/18 07:25:00;;;;;;;15.85;5.03;;;8.10;99.90;;;;;;4142366;28;20038;-64
2022/01/18 07:27:00;;;;;;;12.95;5.18;;;8.10;99.90;;;;;;4141830;28;20042;-64
2022/01/18 07:29:01;;;;;;;20.38;5.90;;;8.10;99.90;;;;;;4142335;28;20045;-64
2022/01/18 07:31:01;;;;;;;16.92;5.57;;;8.10;99.90;;;;;;4139928;28;20034;-65
2022/01/18 07:33:03;;;;;;;21.88;6.50;;;8.10;99.90;;;;;;4141262;28;20402;-65
2022/01/18 07:35:03;;;;;;;15.77;5.35;;;8.10;99.90;;;;;;4142489;28;20042;-68
2022/01/18 07:37:05;;;;;;;16.88;6.13;;;8.10;99.90;;;;;;4142430;28;20277;-65
2022/01/18 07:39:05;;;;;;;17.33;5.82;;;8.10;99.90;;;;;;4142581;28;20125;-65
2022/01/18 07:41:06;;;;;;;14.55;6.10;;;8.10;99.90;;;;;;4138073;28;20065;-65
2022/01/18 07:43:07;;;;;;;17.02;6.22;;;8.10;99.90;;;;;;4144397;28;20405;-65
2022/01/18 07:45:08;;;;;;;20.10;6.25;;;8.10;99.90;;;;;;4143572;28;20545;-65
2022/01/18 07:47:09;;;;;;;13.85;5.53;;;8.10;99.90;;;;;;4142307;28;20050;-65
2022/01/18 07:49:09;;;;;;;19.95;6.13;;;8.10;99.90;;;;;;4143525;28;20069;-65
2022/01/18 07:51:11;;;;;;;14.07;5.65;;;8.20;99.90;;;;;;4144658;28;20053;-65
2022/01/18 07:53:12;;;;;;;12.38;4.97;;;8.20;99.90;;;;;;4144344;28;20050;-65
2022/01/18 07:55:13;;;;;;;14.30;5.32;;;8.20;99.90;;;;;;4144241;28;20038;-65
2022/01/18 07:57:15;;;;;;;13.60;5.82;;;8.20;99.90;;;;;;4144024;28;20578;-64
2022/01/18 07:59:15;;;;;;;16.17;6.30;;;8.20;99.90;;;;;;4145079;28;20087;-64
2022/01/18 08:01:18;;;;;;;15.27;6.40;;;8.20;99.90;;;;;;4140807;28;20077;-65
2022/01/18 08:03:18;;;;;;;15.85;6.47;;;8.20;99.90;;;;;;4145050;28;20046;-65
2022/01/18 08:05:19;;;;;;;14.80;6.38;;;8.20;99.90;;;;;;4144435;28;20144;-64
2022/01/18 08:07:20;;;;;;;20.08;7.32;;;8.20;99.90;;;;;;4145071;28;20587;-64
2022/01/18 08:09:21;;;;;;;18.02;6.65;;;8.20;99.90;;;;;;4143588;28;20090;-64
2022/01/18 08:11:22;;;;;;;15.80;7.43;;;8.30;99.90;;;;;;4142472;28;20045;-65
2022/01/18 08:13:27;;;;;;;19.13;6.88;;;8.20;99.90;;;;;;4144092;28;20465;-65
2022/01/18 08:15:38;;;;;;;19.30;6.53;;;8.30;99.90;;;;;;4144008;28;20041;-64
2022/01/18 08:17:40;;;;;;;14.25;6.63;;;8.30;99.90;;;;;;4142687;28;20513;-65
2022/01/18 08:19:41;;;;;;;;;;;8.30;99.90;;;;;;4144213;28;20045;-65
2022/01/18 08:21:42;;;;;;;13.88;6.50;;;8.30;99.90;;;;;;4141118;28;19918;-65
2022/01/18 08:23:42;;;;;;;18.80;6.95;;;8.30;99.90;;;;;;4145440;28;20465;-65
2022/01/18 08:25:44;;;;;;;14.90;6.88;;;8.30;99.90;;;;;;4144396;28;20042;-65
2022/01/18 08:27:45;;;;;;;18.67;8.05;;;8.30;99.90;;;;;;4144803;28;20324;-65
2022/01/18 08:29:46;;;;;;;16.65;7.53;;;8.30;99.90;;;;;;4143469;28;20038;-64
2022/01/18 08:31:47;;;;;;;20.27;8.70;;;8.30;99.90;;;;;;4141367;28;20034;-64
2022/01/18 08:33:48;;;;;;;24.38;9.45;;;8.30;99.90;;;;;;4144912;28;20644;-65
2022/01/18 08:35:49;;;;;;;24.38;9.27;;;8.30;99.90;;;;;;4141712;28;20083;-64
2022/01/18 08:37:49;;;;;;;26.20;10.57;;;8.30;99.90;;;;;;4144217;28;20160;-65
2022/01/18 08:39:50;;;;;;;28.08;9.73;;;8.30;99.90;;;;;;4144298;28;20042;-65
2022/01/18 08:41:51;;;;;;;31.27;10.40;;;8.30;99.90;;;;;;4142153;28;20056;-65
2022/01/18 08:43:51;;;;;;;24.15;10.23;;;8.30;99.90;;;;;;4145195;28;20821;-65
2022/01/18 08:45:52;;;;;;;28.85;10.00;;;8.20;99.90;;;;;;4144073;28;20038;-65
2022/01/18 08:47:53;;;;;;;26.98;11.38;;;8.20;99.90;;;;;;4145886;28;20042;-65
2022/01/18 08:49:54;;;;;;;21.88;9.68;;;8.20;99.90;;;;;;4144165;28;20038;-65
2022/01/18 08:51:54;;;;;;;17.70;8.75;;;8.20;99.90;;;;;;4140610;28;20412;-65
2022/01/18 08:53:55;;;;;;;20.33;9.07;;;8.20;99.90;;;;;;4144307;28;20046;-65
2022/01/18 08:55:56;;;;;;;17.15;9.35;;;8.20;99.90;;;;;;4144262;28;20046;-65
2022/01/18 08:57:56;;;;;;;19.35;9.98;;;8.20;99.90;;;;;;4144022;28;20045;-65
2022/01/18 08:59:57;;;;;;;21.08;9.45;;;8.10;99.90;;;;;;4143953;28;20037;-65
2022/01/18 09:01:59;;;;;;;17.67;10.55;;;8.10;99.90;;;;;;4140814;28;20042;-65
2022/01/18 09:04:01;;;;;;;22.63;10.85;;;8.10;99.90;;;;;;4144132;28;20085;-65
2022/01/18 09:06:04;;;;;;;24.58;10.88;;;8.10;99.90;;;;;;4144103;28;20125;-65
2022/01/18 09:08:07;;;;;;;23.52;10.98;;;8.10;99.90;;;;;;4143234;28;20045;-66
2022/01/18 09:10:11;;;;;;;30.45;13.05;;;8.10;99.90;;;;;;4141709;28;20443;-66
2022/01/18 09:12:14;;;;;;;28.60;13.00;;;8.10;99.90;;;;;;4142217;28;20037;-65
2022/01/18 09:14:16;;;;;;;27.23;12.80;;;8.00;99.90;;;;;;4144570;28;20050;-65
2022/01/18 09:16:18;;;;;;;24.15;10.73;;;8.00;99.90;;;;;;4142784;28;20054;-65
2022/01/18 09:18:18;;;;;;;29.77;12.57;;;8.00;99.90;;;;;;4143761;28;20129;-65
2022/01/18 09:20:19;;;;;;;29.92;13.80;;;8.00;99.90;;;;;;4142305;28;20085;-65
2022/01/18 09:22:20;;;;;;;27.88;14.52;;;8.00;99.90;;;;;;4142732;28;20063;-65
2022/01/18 09:24:21;;;;;;;30.88;12.90;;;8.00;99.90;;;;;;4143196;28;20509;-65
2022/01/18 09:26:21;;;;;;;33.92;13.38;;;8.00;99.90;;;;;;4142559;28;20045;-65
2022/01/18 09:28:22;;;;;;;29.00;12.82;;;8.00;99.90;;;;;;4143815;28;20054;-65
2022/01/18 09:30:26;;;;;;;27.45;12.30;;;8.00;99.90;;;;;;4140929;28;20068;-65
2022/01/18 09:32:26;;;;;;;26.42;11.30;;;8.00;99.90;;;;;;4141238;28;20145;-65
2022/01/18 09:34:27;;;;;;;26.10;10.70;;;8.10;99.90;;;;;;4143492;28;20493;-65
2022/01/18 09:36:28;;;;;;;24.95;12.05;;;8.10;99.90;;;;;;4142413;28;20447;-65
2022/01/18 09:38:28;;;;;;;18.98;10.05;;;8.10;99.90;;;;;;4143774;28;20117;-65
2022/01/18 09:40:30;;;;;;;21.33;10.07;;;8.20;99.90;;;;;;4141849;28;20041;-65
2022/01/18 09:42:34;;;;;;;21.50;9.63;;;8.20;99.90;;;;;;4141960;28;20121;-65
2022/01/18 09:44:35;;;;;;;24.48;10.98;;;8.20;99.90;;;;;;4143634;28;20034;-66
2022/01/18 09:46:37;;;;;;;25.20;10.83;;;8.30;99.90;;;;;;4142503;28;20050;-66
2022/01/18 09:48:37;;;;;;;23.27;10.70;;;8.20;99.90;;;;;;4143378;28;20064;-65
2022/01/18 09:50:40;;;;;;;25.20;12.63;;;8.30;99.90;;;;;;4140537;28;20124;-65
2022/01/18 09:52:41;;;;;;;28.17;12.30;;;8.30;99.90;;;;;;4142836;28;20512;-65
2022/01/18 09:54:43;;;;;;;24.42;11.13;;;8.30;99.90;;;;;;4143374;28;20204;-63
2022/01/18 09:56:44;;;;;;;18.17;9.80;;;8.30;99.90;;;;;;4142900;28;20555;-63
2022/01/18 09:58:45;;;;;;;18.75;10.68;;;8.30;99.90;;;;;;4143609;28;20277;-63
2022/01/18 10:00:46;;;;;;;25.77;11.88;;;8.40;99.90;;;;;;4140647;28;20528;-63
2022/01/18 10:02:48;;;;;;;22.92;10.95;;;8.30;99.90;;;;;;4141462;28;20480;-63
2022/01/18 10:04:51;;;;;;;18.20;9.80;;;8.40;99.90;;;;;;4157776;28;20069;-63
2022/01/18 10:06:58;;;;;;;24.83;11.65;;;8.40;99.90;;;;;;4142225;28;20057;-63
2022/01/18 10:08:59;;;;;;;26.58;11.68;;;8.50;99.90;;;;;;4141827;28;20393;-63
2022/01/18 10:11:07;;;;;;;21.48;10.57;;;8.50;99.90;;;;;;4140161;28;20038;-63
2022/01/18 10:13:19;;;;;;;23.98;11.70;;;8.50;99.90;;;;;;4140487;28;20053;-64
2022/01/18 10:15:20;;;;;;;30.20;12.27;;;8.50;99.90;;;;;;4142721;28;20041;-63
2022/01/18 10:17:36;;;;;;;24.55;11.95;;;8.50;99.90;;;;;;4142639;28;20046;-63
2022/01/18 10:19:48;;;;;;;26.95;12.02;;;8.50;99.90;;;;;;4143059;28;20461;-64
2022/01/18 10:21:50;;;;;;;21.55;10.15;;;8.50;99.90;;;;;;4140332;28;20643;-65
2022/01/18 10:23:51;;;;;;;23.85;10.23;;;8.50;99.90;;;;;;4142403;28;20040;-63
2022/01/18 10:25:53;;;;;;;29.23;12.07;;;8.60;99.90;;;;;;4142328;28;20049;-63
2022/01/18 10:27:55;;;;;;;28.60;11.83;;;8.60;99.90;;;;;;4142370;28;20080;-63
2022/01/18 10:29:55;;;;;;;24.45;10.85;;;8.60;99.90;;;;;;4141515;28;20101;-63
2022/01/18 10:32:00;;;;;;;23.48;10.73;;;8.70;99.90;;;;;;4140120;28;20038;-63
2022/01/18 10:34:43;;;;;;;21.75;10.32;;;8.80;99.90;;;;;;4142533;28;20049;-63
2022/01/18 10:36:53;;;;;;;28.73;12.02;;;8.90;99.90;;;;;;4153300;28;20042;-63
2022/01/18 10:39:01;;;;;;;24.27;11.02;;;8.90;99.90;;;;;;4158982;28;20037;-63
2022/01/18 10:41:31;;;;;;;23.10;11.10;;;9.00;99.90;;;;;;4155829;28;20073;-63
2022/01/18 10:43:33;;;;;;;25.58;10.98;;;9.00;99.90;;;;;;4157597;28;20048;-63
2022/01/18 10:45:35;;;;;;;37.63;13.40;;;9.10;99.90;;;;;;4158038;28;20041;-63
2022/01/18 10:47:37;;;;;;;20.08;9.80;;;9.00;99.90;;;;;;4157386;28;20527;-65
2022/01/18 10:49:40;;;;;;;21.73;9.68;;;9.10;99.90;;;;;;4158679;28;20715;-64
2022/01/18 10:51:43;;;;;;;23.60;10.48;;;9.10;99.90;;;;;;4151138;28;20644;-63
2022/01/18 10:53:56;;;;;;;22.15;9.98;;;9.20;99.90;;;;;;4155176;28;20049;-63
2022/01/18 10:56:14;;;;;;;26.52;11.50;;;9.20;99.90;;;;;;4154664;28;20038;-63
2022/01/18 10:58:21;;;;;;;22.85;10.60;;;9.20;99.90;;;;;;4141332;28;20452;-63
2022/01/18 11:00:25;;;;;;;25.52;9.45;;;9.20;99.90;;;;;;4141146;28;20042;-63
2022/01/18 11:02:26;;;;;;;27.45;9.95;;;9.20;99.90;;;;;;4141944;28;20046;-63
2022/01/18 11:04:28;;;;;;;20.13;9.38;;;9.20;99.90;;;;;;4142182;28;20038;-63
2022/01/18 11:06:29;;;;;;;18.05;9.05;;;9.20;99.90;;;;;;4140519;28;20758;-63
2022/01/18 11:08:30;;;;;;;24.38;9.85;;;9.30;99.90;;;;;;4141184;28;20077;-63
2022/01/18 11:10:36;;;;;;;21.50;9.43;;;9.30;99.90;;;;;;4138851;28;20045;-63
2022/01/18 11:12:45;;;;;;;20.17;8.35;;;9.30;99.90;;;;;;4141408;28;20124;-64
2022/01/18 11:14:51;;;;;;;19.75;8.50;;;9.40;99.90;;;;;;4140516;28;20050;-63
2022/01/18 11:16:56;;;;;;;23.52;9.38;;;9.40;99.90;;;;;;4144881;28;20080;-64
2022/01/18 11:18:57;;;;;;;25.98;10.45;;;9.40;99.90;;;;;;4161140;28;20046;-63
2022/01/18 11:21:02;;;;;;;26.58;10.55;;;9.40;99.90;;;;;;4159498;28;20040;-64
2022/01/18 11:23:05;;;;;;;27.33;10.45;;;9.40;99.90;;;;;;4161062;28;20045;-64
2022/01/18 11:25:06;;;;;;;26.45;10.18;;;9.40;99.90;;;;;;4159899;28;20045;-67
2022/01/18 11:27:12;;;;;;;26.60;10.27;;;9.40;99.90;;;;;;4161411;28;20141;-65
2022/01/18 11:29:16;;;;;;;21.67;9.27;;;9.40;99.90;;;;;;4190416;28;20041;-64
2022/01/18 11:31:17;;;;;;;20.25;9.55;;;9.40;99.90;;;;;;4156321;28;20044;-64
2022/01/18 11:33:23;;;;;;;27.27;10.75;;;9.40;99.90;;;;;;4160306;28;20041;-64
2022/01/18 11:35:45;;;;;;;29.10;10.38;;;9.50;99.90;;;;;;4157058;28;20543;-64
2022/01/18 11:37:58;;;;;;;24.67;10.38;;;9.50;99.90;;;;;;4160778;28;20048;-64
2022/01/18 11:40:05;;;;;;;21.42;9.18;;;9.50;99.90;;;;;;4160034;28;20141;-64
2022/01/18 11:42:12;;;;;;;31.13;10.95;;;9.50;99.90;;;;;;4159466;28;20038;-64
2022/01/18 11:44:19;;;;;;;20.88;8.90;;;9.60;99.90;;;;;;4159622;28;20053;-64
2022/01/18 11:46:29;;;;;;;24.38;9.82;;;9.60;99.90;;;;;;4159022;28;20377;-63